Ammon, Idaho
Current Conditions -  °F | °C
As of 4:53 PM on Wednesday 26 Nov 2014 (Local Time) from KIDA Reporting Station
Broken Clouds Broken Clouds  
Wind Chill: 43°   Ceiling: 12000
Heat Index: 48°   Visibility: 10mi
Dew Point: 36°   Wind: 13mph
Humidity: 63%   Direction: 200°SSW
Pressure: 30.27"   Gusts: NA
Location:  43.4284°N, 111.925°W
Report Text: KIDA 262353Z 20011KT 10SM FEW060 BKN120 BKN200 09/02 A3027 RMK AO2 SLP249 T00890022 10106 20067 50003
Loading
Personal Weather Stations






























Interactive Weather Map New forecast layout! Learn more

10-Day Weather Forecast

Advertisements
Track Severe Weather on mobile